createdAt,value
2018-07-30T00:03:35.105Z,24.60
2018-07-30T00:06:03.497Z,24.60
2018-07-30T00:08:31.939Z,24.60
2018-07-30T00:11:00.300Z,24.60
2018-07-30T00:13:28.816Z,24.60
2018-07-30T00:15:57.162Z,24.70
2018-07-30T00:18:25.517Z,24.70
2018-07-30T00:20:53.953Z,24.70
2018-07-30T00:23:22.302Z,24.70
2018-07-30T00:25:50.648Z,24.60
2018-07-30T00:28:19.041Z,24.50
2018-07-30T00:30:47.385Z,24.40
2018-07-30T00:33:15.778Z,24.50
2018-07-30T00:35:44.164Z,24.50
2018-07-30T00:38:12.509Z,24.30
2018-07-30T00:40:41.038Z,24.20
2018-07-30T00:43:09.395Z,24.10
2018-07-30T00:45:37.765Z,24.30
2018-07-30T00:48:06.223Z,24.70
2018-07-30T00:50:34.570Z,24.90
2018-07-30T00:53:02.969Z,24.60
2018-07-30T00:55:31.327Z,24.40
2018-07-30T00:57:59.862Z,24.20
2018-07-30T01:00:28.222Z,24.10
2018-07-30T01:02:56.584Z,24.20
2018-07-30T01:05:25.011Z,24.10
2018-07-30T01:07:53.365Z,24.20
2018-07-30T01:10:21.787Z,24.20
2018-07-30T01:12:50.161Z,24.30
2018-07-30T01:15:18.530Z,24.20
2018-07-30T01:17:46.984Z,24.40
2018-07-30T01:20:15.334Z,24.20
2018-07-30T01:22:43.806Z,24.20
2018-07-30T01:25:12.145Z,24.40
2018-07-30T01:30:08.741Z,24.20
2018-07-30T01:32:37.152Z,24.00
2018-07-30T01:35:05.589Z,23.70
2018-07-30T01:37:33.953Z,23.70
2018-07-30T01:40:02.300Z,23.80
2018-07-30T01:42:30.661Z,23.60
2018-07-30T01:44:59.026Z,23.50
2018-07-30T01:47:27.353Z,23.60
2018-07-30T01:49:55.725Z,23.50
2018-07-30T01:52:24.276Z,23.60
2018-07-30T01:54:52.710Z,23.90
2018-07-30T01:57:21.034Z,24.00
2018-07-30T01:59:49.636Z,23.90
2018-07-30T02:02:18.005Z,23.80
2018-07-30T02:04:46.364Z,23.70
2018-07-30T02:07:14.718Z,23.80
2018-07-30T02:09:43.056Z,23.70
2018-07-30T02:12:11.413Z,23.60
2018-07-30T02:14:39.746Z,23.40
2018-07-30T02:17:08.114Z,23.30
2018-07-30T02:19:36.647Z,23.40
2018-07-30T02:22:05.041Z,23.40
2018-07-30T02:24:33.406Z,23.40
2018-07-30T02:27:01.863Z,23.30
2018-07-30T02:29:31.062Z,23.30
2018-07-30T02:31:59.494Z,23.30
2018-07-30T02:34:27.933Z,23.50
2018-07-30T02:36:56.375Z,23.60
2018-07-30T02:39:24.790Z,23.60
2018-07-30T02:41:53.275Z,23.40
2018-07-30T02:44:21.655Z,23.20
2018-07-30T02:46:50.099Z,23.10
2018-07-30T02:49:18.495Z,23.00
2018-07-30T02:51:46.940Z,22.90
2018-07-30T02:54:15.431Z,23.00
2018-07-30T02:56:44.659Z,23.20
2018-07-30T02:59:13.047Z,23.10
2018-07-30T03:01:41.461Z,23.10
2018-07-30T03:04:10.033Z,23.10
2018-07-30T03:06:38.479Z,23.10
2018-07-30T03:09:08.825Z,22.80
2018-07-30T03:11:37.310Z,22.60
2018-07-30T03:14:05.846Z,22.70
2018-07-30T03:16:34.485Z,22.70
2018-07-30T03:19:02.860Z,22.60
2018-07-30T03:21:31.313Z,22.50
2018-07-30T03:23:59.761Z,22.60
2018-07-30T03:26:28.162Z,22.50
2018-07-30T03:28:56.574Z,22.50
2018-07-30T03:31:25.011Z,22.50
2018-07-30T03:33:53.447Z,22.70
2018-07-30T03:36:22.051Z,22.70
2018-07-30T03:38:50.435Z,22.60
2018-07-30T03:41:18.829Z,22.50
2018-07-30T03:43:47.257Z,22.50
2018-07-30T03:46:15.650Z,22.40
2018-07-30T03:48:44.039Z,22.30
2018-07-30T03:51:12.493Z,22.30
2018-07-30T03:53:40.909Z,22.20
2018-07-30T03:56:09.298Z,22.30
2018-07-30T03:58:37.681Z,22.50
2018-07-30T04:01:06.086Z,22.40
2018-07-30T04:03:34.681Z,22.30
2018-07-30T04:06:03.118Z,22.30
2018-07-30T04:08:31.565Z,22.20
2018-07-30T04:11:00.119Z,22.20
2018-07-30T04:13:28.578Z,22.30
2018-07-30T04:15:56.959Z,22.00
2018-07-30T04:18:25.530Z,22.00
2018-07-30T04:20:53.915Z,21.90
2018-07-30T04:23:22.370Z,22.00
2018-07-30T04:25:50.794Z,22.20
2018-07-30T04:28:19.186Z,22.10
2018-07-30T04:30:47.666Z,22.20
2018-07-30T04:33:16.091Z,22.30
2018-07-30T04:35:44.655Z,22.20
2018-07-30T04:38:12.989Z,22.30
2018-07-30T04:40:41.418Z,22.40
2018-07-30T04:43:09.999Z,22.40
2018-07-30T04:45:38.338Z,22.30
2018-07-30T04:48:06.687Z,22.30
2018-07-30T04:50:35.059Z,22.40
2018-07-30T04:53:03.454Z,22.40
2018-07-30T04:55:31.812Z,22.40
2018-07-30T04:58:00.318Z,22.20
2018-07-30T05:00:28.741Z,22.10
2018-07-30T05:05:25.330Z,22.10
2018-07-30T05:07:53.677Z,22.30
2018-07-30T05:10:21.990Z,22.40
2018-07-30T05:12:50.369Z,22.50
2018-07-30T05:17:46.838Z,22.40
2018-07-30T05:20:15.199Z,22.40
2018-07-30T05:22:43.539Z,22.70
2018-07-30T05:25:11.874Z,22.70
2018-07-30T05:27:40.237Z,22.70
2018-07-30T05:30:08.601Z,22.70
2018-07-30T05:32:36.953Z,22.80
2018-07-30T05:35:05.574Z,22.90
2018-07-30T05:37:34.037Z,22.90
2018-07-30T05:40:02.466Z,23.00
2018-07-30T05:42:31.245Z,23.10
2018-07-30T05:44:59.690Z,23.20
2018-07-30T05:47:28.135Z,23.30
2018-07-30T05:49:56.603Z,23.40
2018-07-30T05:52:24.970Z,23.40
2018-07-30T05:54:53.598Z,23.30
2018-07-30T05:57:22.158Z,23.40
2018-07-30T05:59:50.534Z,23.50
2018-07-30T06:02:20.046Z,23.50
2018-07-30T06:04:48.446Z,23.50
2018-07-30T06:07:16.866Z,23.60
2018-07-30T06:09:45.874Z,23.70
2018-07-30T06:12:14.215Z,23.70
2018-07-30T06:14:42.660Z,23.80
2018-07-30T06:17:11.092Z,23.90
2018-07-30T06:19:39.689Z,24.00
2018-07-30T06:22:08.126Z,24.00
2018-07-30T06:24:36.539Z,24.10
2018-07-30T06:27:05.023Z,24.20
2018-07-30T06:29:33.492Z,24.30
2018-07-30T06:32:02.218Z,24.40
2018-07-30T06:34:30.608Z,24.40
2018-07-30T06:36:58.962Z,24.60
2018-07-30T06:39:27.463Z,24.70
2018-07-30T06:41:55.844Z,24.70
2018-07-30T06:44:24.216Z,24.60
2018-07-30T06:46:52.745Z,24.60
2018-07-30T06:49:21.133Z,24.60
2018-07-30T06:51:49.510Z,24.60
2018-07-30T06:54:18.015Z,24.70
2018-07-30T06:56:46.374Z,24.80
2018-07-30T06:59:14.712Z,24.90
2018-07-30T07:01:43.082Z,24.90
2018-07-30T07:04:11.483Z,24.80
2018-07-30T07:06:39.853Z,24.90
2018-07-30T07:09:09.501Z,25.00
2018-07-30T07:11:38.354Z,25.10
2018-07-30T07:14:06.911Z,25.10
2018-07-30T07:16:35.393Z,25.20
2018-07-30T07:19:03.774Z,25.30
2018-07-30T07:21:32.271Z,25.30
2018-07-30T07:24:01.187Z,25.40
2018-07-30T07:26:29.611Z,25.50
2018-07-30T07:28:58.039Z,25.80
2018-07-30T07:31:26.507Z,26.00
2018-07-30T07:33:55.046Z,26.50
2018-07-30T07:36:23.418Z,27.10
2018-07-30T07:38:51.982Z,27.80
2018-07-30T07:41:20.331Z,28.60
2018-07-30T07:43:48.690Z,29.40
2018-07-30T07:46:17.150Z,30.00
2018-07-30T07:48:45.534Z,30.60
2018-07-30T07:51:13.998Z,31.20
2018-07-30T07:53:42.342Z,31.60
2018-07-30T07:56:10.749Z,32.00
2018-07-30T07:58:39.159Z,32.40
2018-07-30T08:01:07.554Z,32.50
2018-07-30T08:03:35.910Z,32.80
2018-07-30T08:06:04.332Z,32.90
2018-07-30T08:08:32.808Z,32.90
2018-07-30T08:13:29.220Z,33.00
2018-07-30T08:15:57.591Z,32.90
2018-07-30T08:18:25.967Z,32.70
2018-07-30T08:20:54.577Z,32.50
2018-07-30T08:23:22.917Z,32.10
2018-07-30T08:25:51.291Z,31.90
2018-07-30T08:28:19.670Z,31.60
2018-07-30T08:30:48.006Z,31.40
2018-07-30T08:33:16.396Z,31.30
2018-07-30T08:35:44.833Z,31.10
2018-07-30T08:38:13.230Z,31.00
2018-07-30T08:40:41.686Z,30.80
2018-07-30T08:43:10.115Z,30.70
2018-07-30T08:45:38.574Z,30.60
2018-07-30T08:48:06.984Z,30.50
2018-07-30T08:50:35.379Z,30.40
2018-07-30T08:53:03.802Z,30.40
2018-07-30T08:55:32.274Z,30.40
2018-07-30T08:58:00.721Z,30.40
2018-07-30T09:00:29.122Z,30.50
2018-07-30T09:02:57.590Z,30.40
2018-07-30T09:05:26.002Z,30.40
2018-07-30T09:07:54.423Z,30.40
2018-07-30T09:10:22.855Z,30.40
2018-07-30T09:12:51.345Z,30.40
2018-07-30T09:15:19.682Z,30.40
2018-07-30T09:17:48.102Z,30.40
2018-07-30T09:20:16.487Z,30.30
2018-07-30T09:22:44.968Z,30.30
2018-07-30T09:25:13.367Z,30.30
2018-07-30T09:27:41.810Z,30.30
2018-07-30T09:30:10.248Z,30.40
2018-07-30T09:32:38.677Z,30.50
2018-07-30T09:35:07.290Z,30.50
2018-07-30T09:37:35.681Z,30.50
2018-07-30T09:40:04.253Z,30.50
2018-07-30T09:42:32.682Z,30.60
2018-07-30T09:45:01.268Z,30.70
2018-07-30T09:47:29.574Z,30.90
2018-07-30T09:49:57.971Z,31.00
2018-07-30T09:52:26.384Z,31.20
2018-07-30T09:54:54.941Z,31.30
2018-07-30T09:57:23.354Z,31.30
2018-07-30T09:59:51.762Z,31.30
2018-07-30T10:02:20.372Z,31.40
2018-07-30T10:04:48.758Z,31.40
2018-07-30T10:07:17.176Z,31.40
2018-07-30T10:09:45.569Z,31.40
2018-07-30T10:12:13.958Z,31.40
2018-07-30T10:14:42.350Z,31.60
2018-07-30T10:17:10.902Z,31.60
2018-07-30T10:19:39.314Z,31.60
2018-07-30T10:22:07.738Z,31.60
2018-07-30T10:24:36.162Z,31.60
2018-07-30T10:27:04.603Z,31.70
2018-07-30T10:29:33.026Z,31.90
2018-07-30T10:32:01.446Z,32.00
2018-07-30T10:34:29.914Z,32.00
2018-07-30T10:36:58.336Z,32.10
2018-07-30T10:39:26.733Z,32.40
2018-07-30T10:44:23.387Z,32.80
2018-07-30T10:46:51.778Z,33.10
2018-07-30T10:49:20.170Z,33.30
2018-07-30T10:51:48.648Z,33.30
2018-07-30T10:54:17.207Z,33.20
2018-07-30T10:56:45.618Z,33.20
2018-07-30T10:59:14.030Z,33.30
2018-07-30T11:01:42.445Z,33.30
2018-07-30T11:04:10.834Z,33.30
2018-07-30T11:06:39.238Z,33.40
2018-07-30T11:09:09.043Z,33.60
2018-07-30T11:11:37.470Z,33.70
2018-07-30T11:14:06.177Z,33.70
2018-07-30T11:16:34.627Z,33.70
2018-07-30T11:19:03.411Z,33.90
2018-07-30T11:21:31.804Z,33.90
2018-07-30T11:24:00.389Z,33.80
2018-07-30T11:26:28.774Z,33.60
2018-07-30T11:28:57.195Z,33.40
2018-07-30T11:31:25.622Z,33.10
2018-07-30T11:33:54.022Z,32.90
2018-07-30T11:36:22.462Z,32.80
2018-07-30T11:38:51.046Z,32.60
2018-07-30T11:41:19.478Z,32.50
2018-07-30T11:43:47.877Z,32.40
2018-07-30T11:46:16.346Z,32.40
2018-07-30T11:48:44.759Z,32.50
2018-07-30T11:51:13.150Z,32.50
2018-07-30T11:53:41.532Z,32.40
2018-07-30T11:56:09.933Z,32.40
2018-07-30T11:58:38.366Z,32.30
2018-07-30T12:01:06.862Z,32.20
2018-07-30T12:03:35.431Z,32.20
2018-07-30T12:06:03.887Z,32.10
2018-07-30T12:08:32.315Z,32.10
2018-07-30T12:11:00.739Z,32.10
2018-07-30T12:13:29.187Z,32.10
2018-07-30T12:15:57.580Z,32.00
2018-07-30T12:18:25.987Z,32.00
2018-07-30T12:20:54.746Z,32.10
2018-07-30T12:23:23.125Z,32.10
2018-07-30T12:25:51.525Z,32.10
2018-07-30T12:28:20.052Z,32.10
2018-07-30T12:30:48.506Z,32.10
2018-07-30T12:33:16.925Z,32.00
2018-07-30T12:35:45.446Z,32.10
2018-07-30T12:38:13.778Z,32.10
2018-07-30T12:40:42.126Z,32.10
2018-07-30T12:43:10.614Z,32.10
2018-07-30T12:45:43.927Z,32.10
2018-07-30T12:48:12.427Z,32.00
2018-07-30T12:50:40.762Z,32.00
2018-07-30T12:53:09.296Z,31.90
2018-07-30T12:55:37.846Z,31.90
2018-07-30T12:58:06.526Z,31.90
2018-07-30T13:00:35.071Z,31.90
2018-07-30T13:03:03.431Z,32.00
2018-07-30T13:05:31.791Z,32.20
2018-07-30T13:08:00.225Z,32.20
2018-07-30T13:10:28.606Z,32.30
2018-07-30T13:12:56.950Z,32.30
2018-07-30T13:15:25.325Z,32.30
2018-07-30T13:17:53.682Z,32.30
2018-07-30T13:20:22.177Z,32.20
2018-07-30T13:22:50.556Z,32.10
2018-07-30T13:25:18.902Z,32.10
2018-07-30T13:27:47.285Z,32.10
2018-07-30T13:30:15.638Z,32.10
2018-07-30T13:32:44.029Z,32.10
2018-07-30T13:35:12.359Z,32.10
2018-07-30T13:37:40.758Z,32.00
2018-07-30T13:40:09.183Z,32.00
2018-07-30T13:42:37.633Z,32.00
2018-07-30T13:45:06.315Z,32.00
2018-07-30T13:47:34.915Z,32.20
2018-07-30T13:50:03.448Z,32.10
2018-07-30T13:52:31.848Z,32.10
2018-07-30T13:55:00.409Z,32.10
2018-07-30T13:57:28.850Z,32.10
2018-07-30T13:59:57.299Z,32.20
2018-07-30T14:02:25.746Z,32.20
2018-07-30T14:04:54.138Z,32.20
2018-07-30T14:07:22.545Z,32.20
2018-07-30T14:12:19.074Z,32.50
2018-07-30T14:14:47.628Z,32.60
2018-07-30T14:17:16.044Z,32.70
2018-07-30T14:19:44.454Z,32.80
2018-07-30T14:22:13.051Z,32.80
2018-07-30T14:24:41.458Z,32.80
2018-07-30T14:27:09.950Z,32.80
2018-07-30T14:29:38.403Z,32.80
2018-07-30T14:32:06.859Z,33.00
2018-07-30T14:34:35.438Z,33.00
2018-07-30T14:37:03.942Z,33.00
2018-07-30T14:39:32.326Z,33.00
2018-07-30T14:42:00.842Z,32.90
2018-07-30T14:44:29.225Z,32.90
2018-07-30T14:46:57.594Z,32.90
2018-07-30T14:49:26.034Z,32.90
2018-07-30T14:51:54.686Z,32.90
2018-07-30T14:54:23.071Z,32.80
2018-07-30T14:56:51.458Z,32.80
2018-07-30T14:59:19.985Z,32.60
2018-07-30T15:01:48.278Z,32.60
2018-07-30T15:06:44.872Z,32.50
2018-07-30T15:09:14.126Z,32.50
2018-07-30T15:11:42.527Z,32.50
2018-07-30T15:14:10.894Z,32.50
2018-07-30T15:16:39.247Z,32.50
2018-07-30T15:19:08.048Z,32.70
2018-07-30T15:21:36.452Z,32.80
2018-07-30T15:24:05.098Z,32.80
2018-07-30T15:26:33.498Z,32.80
2018-07-30T15:29:01.911Z,32.80
2018-07-30T15:31:30.319Z,32.80
2018-07-30T15:33:58.678Z,32.70
2018-07-30T15:36:27.009Z,32.60
2018-07-30T15:38:55.538Z,32.60
2018-07-30T15:41:23.893Z,32.60
2018-07-30T15:43:52.258Z,32.60
2018-07-30T15:46:20.763Z,32.60
2018-07-30T15:48:49.130Z,32.50
2018-07-30T15:51:17.483Z,32.50
2018-07-30T15:53:46.035Z,32.40
2018-07-30T15:56:14.526Z,32.40
2018-07-30T15:58:42.981Z,32.40
2018-07-30T16:01:11.538Z,32.30
2018-07-30T16:03:39.867Z,32.30
2018-07-30T16:06:08.207Z,32.30
2018-07-30T16:08:36.717Z,32.30
2018-07-30T16:11:05.092Z,32.30
2018-07-30T16:13:33.466Z,32.20
2018-07-30T16:16:01.842Z,32.30
2018-07-30T16:18:30.186Z,32.30
2018-07-30T16:20:58.525Z,32.30
2018-07-30T16:23:26.928Z,32.30
2018-07-30T16:28:23.402Z,32.20
2018-07-30T16:30:51.775Z,32.20
2018-07-30T16:33:20.163Z,32.20
2018-07-30T16:35:48.638Z,32.20
2018-07-30T16:38:17.087Z,32.20
2018-07-30T16:40:45.655Z,32.20
2018-07-30T16:43:14.107Z,32.20
2018-07-30T16:45:42.537Z,32.20
2018-07-30T16:48:10.944Z,32.20
2018-07-30T16:50:39.363Z,32.20
2018-07-30T16:53:07.958Z,32.20
2018-07-30T16:55:36.387Z,32.20
2018-07-30T16:58:04.875Z,32.20
2018-07-30T17:00:33.341Z,32.30
2018-07-30T17:03:01.777Z,32.30
2018-07-30T17:05:30.259Z,32.30
2018-07-30T17:07:58.668Z,32.30
2018-07-30T17:10:27.087Z,32.30
2018-07-30T17:12:55.570Z,32.30
2018-07-30T17:15:23.978Z,32.30
2018-07-30T17:17:52.449Z,32.30
2018-07-30T17:20:20.839Z,32.30
2018-07-30T17:22:49.290Z,32.40
2018-07-30T17:25:17.701Z,32.40
2018-07-30T17:27:46.287Z,32.30
2018-07-30T17:30:14.755Z,32.30
2018-07-30T17:32:43.322Z,32.30
2018-07-30T17:35:11.906Z,32.30
2018-07-30T17:37:40.319Z,32.30
2018-07-30T17:40:09.689Z,32.20
2018-07-30T17:42:38.352Z,31.90
2018-07-30T17:45:09.406Z,31.80
2018-07-30T17:47:38.071Z,31.80
2018-07-30T17:50:07.274Z,31.80
2018-07-30T17:52:35.725Z,31.60
2018-07-30T17:55:04.370Z,31.70
2018-07-30T17:57:32.774Z,31.50
2018-07-30T18:00:01.263Z,31.50
2018-07-30T18:02:29.886Z,31.30
2018-07-30T18:04:58.446Z,31.10
2018-07-30T18:07:26.831Z,31.00
2018-07-30T18:09:55.261Z,30.80
2018-07-30T18:12:23.684Z,30.70
2018-07-30T18:14:52.090Z,30.60
2018-07-30T18:17:20.511Z,30.60
2018-07-30T18:19:49.077Z,30.60
2018-07-30T18:22:18.119Z,30.50
2018-07-30T18:24:46.531Z,30.50
2018-07-30T18:27:15.144Z,30.40
2018-07-30T18:29:43.610Z,30.40
2018-07-30T18:32:11.970Z,30.30
2018-07-30T18:34:40.575Z,30.20
2018-07-30T18:37:08.970Z,30.20
2018-07-30T18:39:37.445Z,30.20
2018-07-30T18:42:06.098Z,30.20
2018-07-30T18:44:34.530Z,30.10
2018-07-30T18:47:02.967Z,30.10
2018-07-30T18:49:31.437Z,30.10
2018-07-30T18:52:00.087Z,30.10
2018-07-30T18:54:28.553Z,30.10
2018-07-30T18:56:56.967Z,30.10
2018-07-30T18:59:25.374Z,30.10
2018-07-30T19:01:53.818Z,30.10
2018-07-30T19:04:22.358Z,30.10
2018-07-30T19:06:50.899Z,30.10
2018-07-30T19:09:19.277Z,30.10
2018-07-30T19:11:47.699Z,30.10
2018-07-30T19:14:18.185Z,30.10
2018-07-30T19:16:50.774Z,30.10
2018-07-30T19:19:19.256Z,30.10
2018-07-30T19:21:48.162Z,30.20
2018-07-30T19:24:17.020Z,30.30
2018-07-30T19:26:45.422Z,30.30
2018-07-30T19:29:13.846Z,30.40
2018-07-30T19:31:42.258Z,30.50
2018-07-30T19:34:10.690Z,30.50
2018-07-30T19:36:39.254Z,30.60
2018-07-30T19:39:10.481Z,30.60
2018-07-30T19:41:38.970Z,30.50
2018-07-30T19:44:07.779Z,30.40
2018-07-30T19:46:36.242Z,30.40
2018-07-30T19:49:05.127Z,30.40
2018-07-30T19:51:33.555Z,30.40
2018-07-30T19:54:02.179Z,30.30
2018-07-30T19:56:30.578Z,30.30
2018-07-30T20:01:27.084Z,30.30
2018-07-30T20:03:55.480Z,30.30
2018-07-30T20:06:23.866Z,30.10
2018-07-30T20:08:52.453Z,30.00
2018-07-30T20:11:20.832Z,30.00
2018-07-30T20:13:49.239Z,30.10
2018-07-30T20:16:17.803Z,30.00
2018-07-30T20:18:46.201Z,29.90
2018-07-30T20:21:14.590Z,29.90
2018-07-30T20:23:43.149Z,29.90
2018-07-30T20:26:11.562Z,29.80
2018-07-30T20:28:40.812Z,29.80
2018-07-30T20:31:09.263Z,29.70
2018-07-30T20:33:37.766Z,29.70
2018-07-30T20:36:06.192Z,29.70
2018-07-30T20:38:34.697Z,29.60
2018-07-30T20:41:03.069Z,29.40
2018-07-30T20:45:59.655Z,29.30
2018-07-30T20:48:27.994Z,29.20
2018-07-30T20:50:56.378Z,29.20
2018-07-30T20:53:24.706Z,29.20
2018-07-30T20:55:53.063Z,29.30
2018-07-30T20:58:21.418Z,29.40
2018-07-30T21:00:50.086Z,29.30
2018-07-30T21:03:18.657Z,29.30
2018-07-30T21:05:47.066Z,29.40
2018-07-30T21:08:16.042Z,29.40
2018-07-30T21:10:45.835Z,29.30
2018-07-30T21:13:15.414Z,29.20
2018-07-30T21:15:43.882Z,29.20
2018-07-30T21:18:12.236Z,29.20
2018-07-30T21:20:40.661Z,29.20
2018-07-30T21:23:09.164Z,29.30
2018-07-30T21:25:37.546Z,29.50
2018-07-30T21:28:05.912Z,29.30
2018-07-30T21:30:34.288Z,28.80
2018-07-30T21:33:02.649Z,28.80
2018-07-30T21:35:31.190Z,28.50
2018-07-30T21:37:59.529Z,28.50
2018-07-30T21:40:27.865Z,28.50
2018-07-30T21:42:56.373Z,28.60
2018-07-30T21:45:24.720Z,28.70
2018-07-30T21:47:53.070Z,28.60
2018-07-30T21:50:21.644Z,28.40
2018-07-30T21:52:49.953Z,28.30
2018-07-30T21:55:18.323Z,28.20
2018-07-30T21:57:46.703Z,28.20
2018-07-30T22:00:21.604Z,28.20
2018-07-30T22:02:50.127Z,28.00
2018-07-30T22:05:18.501Z,28.10
2018-07-30T22:10:14.906Z,28.40
2018-07-30T22:12:43.272Z,28.50
2018-07-30T22:15:11.638Z,28.50
2018-07-30T22:17:40.150Z,28.30
2018-07-30T22:20:08.533Z,28.20
2018-07-30T22:22:37.606Z,28.00
2018-07-30T22:25:06.157Z,27.80
2018-07-30T22:27:34.514Z,27.90
2018-07-30T22:30:02.907Z,27.80
2018-07-30T22:32:31.346Z,27.90
2018-07-30T22:34:59.691Z,27.70
2018-07-30T22:37:28.050Z,27.60
2018-07-30T22:39:56.446Z,27.50
2018-07-30T22:42:24.795Z,27.40
2018-07-30T22:44:53.155Z,27.50
2018-07-30T22:47:21.537Z,27.40
2018-07-30T22:49:49.874Z,27.30
2018-07-30T22:52:18.347Z,27.20
2018-07-30T22:54:46.774Z,27.00
2018-07-30T22:57:15.118Z,27.00
2018-07-30T22:59:43.470Z,27.10
2018-07-30T23:02:11.957Z,27.20
2018-07-30T23:04:40.302Z,27.30
2018-07-30T23:07:08.657Z,27.20
2018-07-30T23:09:37.031Z,27.30
2018-07-30T23:12:05.380Z,27.30
2018-07-30T23:14:33.714Z,27.20
2018-07-30T23:17:02.143Z,27.10
2018-07-30T23:19:30.691Z,27.10
2018-07-30T23:21:59.054Z,27.30
2018-07-30T23:24:27.409Z,27.20
2018-07-30T23:26:55.749Z,27.20
2018-07-30T23:29:24.156Z,27.30
2018-07-30T23:31:52.507Z,27.50
2018-07-30T23:34:20.862Z,27.60
2018-07-30T23:36:49.240Z,27.70
2018-07-30T23:39:17.608Z,27.60
2018-07-30T23:41:46.048Z,27.60
2018-07-30T23:44:14.483Z,27.60
2018-07-30T23:46:42.886Z,27.50
2018-07-30T23:49:11.291Z,27.30
2018-07-30T23:51:39.710Z,27.00
2018-07-30T23:54:08.085Z,26.90
2018-07-30T23:56:36.495Z,27.00
2018-07-30T23:59:05.084Z,27.00
